createdAt,value
2016-07-23T00:00:55.431Z,60.91
2016-07-23T00:01:54.720Z,61.33
2016-07-23T00:02:55.428Z,62.85
2016-07-23T00:03:55.433Z,62.75
2016-07-23T00:04:55.525Z,63.98
2016-07-23T00:05:55.533Z,64.14
2016-07-23T00:06:54.735Z,64.56
2016-07-23T00:07:54.806Z,63.95
2016-07-23T00:08:55.446Z,62.72
2016-07-23T00:09:55.525Z,62.85
2016-07-23T00:10:54.764Z,62.46
2016-07-23T00:11:55.471Z,61.79
2016-07-23T00:12:55.508Z,60.75
2016-07-23T00:13:55.515Z,62.59
2016-07-23T00:14:55.467Z,61.59
2016-07-23T00:15:54.763Z,62.59
2016-07-23T00:16:54.915Z,62.85
2016-07-23T00:17:54.789Z,65.17
2016-07-23T00:18:55.502Z,64.62
2016-07-23T00:19:55.482Z,63.31
2016-07-23T00:20:55.522Z,62.85
2016-07-23T00:21:55.567Z,64.2
2016-07-23T00:22:55.493Z,63.14
2016-07-23T00:23:55.496Z,64.5
2016-07-23T00:24:55.497Z,64.75
2016-07-23T00:25:54.934Z,62.63
2016-07-23T00:26:55.502Z,62.88
2016-07-23T00:27:55.685Z,62.2
2016-07-23T00:28:55.577Z,62.69
2016-07-23T00:29:54.809Z,62.27
2016-07-23T00:30:55.548Z,62.59
2016-07-23T00:31:54.817Z,61.91
2016-07-23T00:32:55.527Z,63.46
2016-07-23T00:33:55.539Z,64.75
2016-07-23T00:34:54.856Z,65.24
2016-07-23T00:35:55.537Z,66.85
2016-07-23T00:36:55.623Z,66.33
2016-07-23T00:37:55.541Z,66.85
2016-07-23T00:38:54.836Z,65.11
2016-07-23T00:39:55.546Z,64.07
2016-07-23T00:40:55.650Z,62.66
2016-07-23T00:41:55.577Z,61.72
2016-07-23T00:42:55.636Z,62.49
2016-07-23T00:43:55.561Z,62.88
2016-07-23T00:44:54.964Z,63.17
2016-07-23T00:45:54.857Z,64.79
2016-07-23T00:46:55.601Z,64.27
2016-07-23T00:47:55.639Z,62.46
2016-07-23T00:48:54.883Z,60.17
2016-07-23T00:49:54.876Z,58.97
2016-07-23T00:50:54.880Z,58.12
2016-07-23T00:51:55.595Z,56.96
2016-07-23T00:52:55.665Z,56.6
2016-07-23T00:53:55.716Z,56.7
2016-07-23T00:54:55.687Z,56.6
2016-07-23T00:55:55.682Z,55.92
2016-07-23T00:56:55.723Z,55.73
2016-07-23T00:57:54.920Z,55.55
2016-07-23T00:58:55.635Z,55.85
2016-07-23T00:59:55.765Z,55.36
2016-07-23T01:00:55.647Z,55.07
2016-07-23T01:01:55.009Z,55.17
2016-07-23T01:02:55.666Z,55.07
2016-07-23T01:03:55.670Z,54.58
2016-07-23T01:04:54.967Z,54.68
2016-07-23T01:05:55.684Z,54.78
2016-07-23T01:06:54.982Z,54.49
2016-07-23T01:07:55.698Z,54.68
2016-07-23T01:08:55.001Z,54.97
2016-07-23T01:09:55.714Z,54.58
2016-07-23T01:10:55.719Z,54.03
2016-07-23T01:11:55.022Z,54.13
2016-07-23T01:12:55.738Z,54.03
2016-07-23T01:13:55.747Z,54.22
2016-07-23T01:14:55.045Z,54.1
2016-07-23T01:15:55.052Z,54.03
2016-07-23T01:16:55.062Z,54.13
2016-07-23T01:17:55.773Z,54.22
2016-07-23T01:18:55.784Z,53.93
2016-07-23T01:19:55.800Z,53.93
2016-07-23T01:20:55.091Z,54.22
2016-07-23T01:21:55.807Z,54.22
2016-07-23T01:22:55.814Z,53.64
2016-07-23T01:23:55.133Z,53.74
2016-07-23T01:24:55.124Z,53.45
2016-07-23T01:25:55.838Z,53.45
2016-07-23T01:26:55.140Z,53.54
2016-07-23T01:27:55.147Z,53.25
2016-07-23T01:28:55.863Z,53.64
2016-07-23T01:29:55.869Z,53.83
2016-07-23T01:30:55.173Z,53.64
2016-07-23T01:31:55.885Z,53.25
2016-07-23T01:32:55.896Z,53.16
2016-07-23T01:33:55.903Z,53.54
2016-07-23T01:34:55.910Z,53.06
2016-07-23T01:35:55.918Z,53.16
2016-07-23T01:36:55.926Z,53.25
2016-07-23T01:37:55.226Z,53.35
2016-07-23T01:38:55.240Z,53.06
2016-07-23T01:39:55.950Z,53.25
2016-07-23T01:40:55.957Z,53.16
2016-07-23T01:41:55.971Z,53.16
2016-07-23T01:42:55.267Z,53.06
2016-07-23T01:43:55.982Z,53.54
2016-07-23T01:44:55.991Z,52.67
2016-07-23T01:45:55.288Z,52.76
2016-07-23T01:46:56.006Z,52.86
2016-07-23T01:47:55.306Z,52.67
2016-07-23T01:48:56.078Z,52.86
2016-07-23T01:49:56.152Z,52.57
2016-07-23T01:50:55.332Z,52.67
2016-07-23T01:51:55.340Z,52.57
2016-07-23T01:52:56.073Z,52.28
2016-07-23T01:53:55.361Z,52.47
2016-07-23T01:54:55.359Z,52.67
2016-07-23T01:55:56.097Z,52.37
2016-07-23T01:56:55.378Z,52.28
2016-07-23T01:57:56.172Z,52.57
2016-07-23T01:58:55.469Z,52.47
2016-07-23T01:59:56.107Z,52.47
2016-07-23T02:00:56.118Z,52.37
2016-07-23T02:01:56.139Z,52.47
2016-07-23T02:02:55.425Z,52.37
2016-07-23T02:03:56.142Z,52.47
2016-07-23T02:04:56.147Z,52.37
2016-07-23T02:05:56.159Z,52.37
2016-07-23T02:06:56.166Z,52.57
2016-07-23T02:07:56.187Z,52.67
2016-07-23T02:08:55.475Z,52.47
2016-07-23T02:09:55.482Z,52.37
2016-07-23T02:10:56.196Z,52.57
2016-07-23T02:11:55.499Z,52.47
2016-07-23T02:12:56.213Z,51.99
2016-07-23T02:13:55.517Z,52.09
2016-07-23T02:14:55.527Z,51.92
2016-07-23T02:15:56.238Z,51.89
2016-07-23T02:16:56.246Z,51.79
2016-07-23T02:17:56.254Z,51.99
2016-07-23T02:18:56.264Z,51.79
2016-07-23T02:19:56.269Z,52.01
2016-07-23T02:20:56.279Z,51.99
2016-07-23T02:21:56.286Z,52.19
2016-07-23T02:22:56.306Z,51.89
2016-07-23T02:23:55.595Z,51.89
2016-07-23T02:24:56.310Z,52.09
2016-07-23T02:25:55.612Z,52.21
2016-07-23T02:26:56.326Z,52.31
2016-07-23T02:27:56.333Z,51.72
2016-07-23T02:28:55.634Z,52.31
2016-07-23T02:29:55.641Z,52.31
2016-07-23T02:30:55.652Z,52.19
2016-07-23T02:31:56.364Z,52.11
2016-07-23T02:32:56.376Z,51.92
2016-07-23T02:33:56.383Z,52.01
2016-07-23T02:34:56.389Z,52.01
2016-07-23T02:35:56.398Z,51.62
2016-07-23T02:36:55.806Z,51.92
2016-07-23T02:38:10.584Z,52.11
2016-07-23T02:38:56.420Z,52.37
2016-07-23T02:39:56.428Z,51.89
2016-07-23T02:40:56.440Z,51.82
2016-07-23T02:41:56.456Z,51.6
2016-07-23T02:42:55.748Z,51.72
2016-07-23T02:43:55.755Z,51.53
2016-07-23T02:44:56.469Z,51.62
2016-07-23T02:45:56.477Z,51.62
2016-07-23T02:46:56.485Z,51.72
2016-07-23T02:47:56.493Z,51.62
2016-07-23T02:48:55.796Z,51.62
2016-07-23T02:49:55.806Z,51.82
2016-07-23T02:50:55.808Z,51.6
2016-07-23T02:51:55.818Z,51.53
2016-07-23T02:52:55.825Z,51.53
2016-07-23T02:53:56.538Z,51.72
2016-07-23T02:54:56.548Z,51.82
2016-07-23T02:55:55.899Z,51.62
2016-07-23T02:56:55.855Z,51.62
2016-07-23T02:57:57.673Z,51.53
2016-07-23T02:58:56.579Z,51.82
2016-07-23T02:59:56.587Z,51.53
2016-07-23T03:00:55.888Z,51.72
2016-07-23T03:01:55.897Z,51.62
2016-07-23T03:02:56.608Z,51.72
2016-07-23T03:03:55.913Z,51.6
2016-07-23T03:04:55.919Z,51.53
2016-07-23T03:05:55.928Z,51.53
2016-07-23T03:06:55.937Z,51.53
2016-07-23T03:07:55.946Z,51.72
2016-07-23T03:08:57.084Z,51.72
2016-07-23T03:09:56.669Z,51.62
2016-07-23T03:10:55.970Z,51.72
2016-07-23T03:11:56.684Z,51.62
2016-07-23T03:12:56.692Z,51.82
2016-07-23T03:13:56.701Z,51.92
2016-07-23T03:14:56.002Z,51.92
2016-07-23T03:15:56.009Z,51.72
2016-07-23T03:16:56.018Z,51.82
2016-07-23T03:17:57.787Z,51.72
2016-07-23T03:18:56.033Z,51.92
2016-07-23T03:19:56.748Z,51.72
2016-07-23T03:20:56.048Z,51.72
2016-07-23T03:21:56.057Z,51.14
2016-07-23T03:22:56.067Z,51.62
2016-07-23T03:23:56.780Z,51.43
2016-07-23T03:24:56.082Z,51.72
2016-07-23T03:25:56.089Z,51.53
2016-07-23T03:26:56.803Z,51.72
2016-07-23T03:27:56.813Z,51.43
2016-07-23T03:28:56.714Z,51.14
2016-07-23T03:29:56.827Z,51.14
2016-07-23T03:30:56.277Z,51.43
2016-07-23T03:31:56.846Z,51.33
2016-07-23T03:32:56.853Z,51.43
2016-07-23T03:33:56.860Z,51.33
2016-07-23T03:34:56.867Z,51.43
2016-07-23T03:35:56.928Z,51.62
2016-07-23T03:36:56.183Z,51.23
2016-07-23T03:37:56.892Z,51.43
2016-07-23T03:38:56.897Z,51.43
2016-07-23T03:39:57.610Z,51.53
2016-07-23T03:40:56.915Z,51.23
2016-07-23T03:41:56.921Z,51.33
2016-07-23T03:42:56.931Z,51.33
2016-07-23T03:43:56.945Z,51.33
2016-07-23T03:44:56.239Z,51.33
2016-07-23T03:45:56.955Z,51.33
2016-07-23T03:46:56.257Z,51.53
2016-07-23T03:47:56.972Z,51.33
2016-07-23T03:48:56.979Z,51.53
2016-07-23T03:49:56.986Z,51.43
2016-07-23T03:50:56.640Z,51.53
2016-07-23T03:51:57.007Z,51.43
2016-07-23T03:52:56.305Z,51.53
2016-07-23T03:53:56.312Z,51.33
2016-07-23T03:54:57.029Z,51.14
2016-07-23T03:55:56.327Z,51.33
2016-07-23T03:56:57.049Z,51.33
2016-07-23T03:57:57.056Z,51.53
2016-07-23T03:58:57.057Z,51.53
2016-07-23T03:59:56.360Z,51.53
2016-07-23T04:00:57.076Z,50.95
2016-07-23T04:01:57.081Z,51.14
2016-07-23T04:02:57.096Z,51.33
2016-07-23T04:03:57.620Z,51.43
2016-07-23T04:04:56.400Z,51.53
2016-07-23T04:05:56.405Z,51.43
2016-07-23T04:06:57.123Z,51.14
2016-07-23T04:07:56.425Z,51.53
2016-07-23T04:08:56.434Z,51.33
2016-07-23T04:09:57.147Z,51.14
2016-07-23T04:10:57.156Z,50.95
2016-07-23T04:11:57.164Z,51.33
2016-07-23T04:12:57.173Z,51.23
2016-07-23T04:13:56.474Z,51.53
2016-07-23T04:14:58.238Z,51.53
2016-07-23T04:15:56.488Z,51.53
2016-07-23T04:16:57.203Z,51.14
2016-07-23T04:17:57.214Z,51.04
2016-07-23T04:18:57.221Z,51.53
2016-07-23T04:19:57.230Z,51.04
2016-07-23T04:20:56.528Z,51.53
2016-07-23T04:21:56.537Z,51.33
2016-07-23T04:22:56.545Z,51.23
2016-07-23T04:23:56.554Z,50.85
2016-07-23T04:24:56.560Z,51.04
2016-07-23T04:25:56.972Z,51.04
2016-07-23T04:26:56.578Z,50.95
2016-07-23T04:27:56.585Z,50.85
2016-07-23T04:28:56.593Z,51.14
2016-07-23T04:29:57.305Z,51.04
2016-07-23T04:30:56.609Z,50.85
2016-07-23T04:31:56.617Z,50.56
2016-07-23T04:32:57.332Z,50.95
2016-07-23T04:33:56.633Z,50.95
2016-07-23T04:34:57.896Z,51.04
2016-07-23T04:35:57.354Z,51.04
2016-07-23T04:36:57.363Z,51.14
2016-07-23T04:37:56.662Z,50.95
2016-07-23T04:38:56.672Z,50.75
2016-07-23T04:39:57.387Z,50.85
2016-07-23T04:40:56.686Z,50.95
2016-07-23T04:41:57.552Z,50.56
2016-07-23T04:42:56.706Z,50.56
2016-07-23T04:43:57.424Z,50.85
2016-07-23T04:44:56.722Z,51.14
2016-07-23T04:45:57.494Z,51.04
2016-07-23T04:46:56.735Z,51.04
2016-07-23T04:47:57.461Z,50.95
2016-07-23T04:48:56.749Z,51.04
2016-07-23T04:49:57.463Z,50.75
2016-07-23T04:50:57.479Z,51.04
2016-07-23T04:51:57.479Z,50.85
2016-07-23T04:52:56.782Z,50.65
2016-07-23T04:53:57.503Z,50.95
2016-07-23T04:54:56.798Z,50.85
2016-07-23T04:55:56.805Z,51.14
2016-07-23T04:56:57.520Z,51.14
2016-07-23T04:57:57.533Z,51.04
2016-07-23T04:58:56.828Z,50.85
2016-07-23T04:59:56.839Z,51.04
2016-07-23T05:00:57.552Z,50.56
2016-07-23T05:01:56.852Z,50.36
2016-07-23T05:02:57.567Z,50.85
2016-07-23T05:03:56.868Z,50.56
2016-07-23T05:04:57.588Z,50.95
2016-07-23T05:05:57.592Z,50.75
2016-07-23T05:06:57.598Z,50.95
2016-07-23T05:07:57.603Z,51.04
2016-07-23T05:08:56.904Z,50.65
2016-07-23T05:09:58.623Z,50.85
2016-07-23T05:10:56.922Z,50.75
2016-07-23T05:11:56.929Z,50.85
2016-07-23T05:12:56.939Z,50.95
2016-07-23T05:13:56.947Z,51.04
2016-07-23T05:14:57.663Z,50.95
2016-07-23T05:15:56.962Z,51.04
2016-07-23T05:16:57.683Z,50.95
2016-07-23T05:17:56.980Z,50.95
2016-07-23T05:18:56.993Z,50.95
2016-07-23T05:19:57.701Z,50.95
2016-07-23T05:20:58.275Z,50.46
2016-07-23T05:21:57.717Z,50.95
2016-07-23T05:22:57.018Z,50.85
2016-07-23T05:23:57.028Z,50.65
2016-07-23T05:24:57.741Z,50.56
2016-07-23T05:25:57.042Z,50.85
2016-07-23T05:26:57.051Z,50.56
2016-07-23T05:27:57.766Z,50.26
2016-07-23T05:28:57.077Z,50.26
2016-07-23T05:29:57.076Z,50.36
2016-07-23T05:30:57.795Z,50.46
2016-07-23T05:31:58.047Z,50.56
2016-07-23T05:32:57.805Z,50.36
2016-07-23T05:33:57.109Z,50.56
2016-07-23T05:34:57.823Z,50.46
2016-07-23T05:35:57.828Z,50.75
2016-07-23T05:36:57.838Z,50.56
2016-07-23T05:37:57.844Z,50.46
2016-07-23T05:38:57.147Z,50.46
2016-07-23T05:39:57.865Z,50.26
2016-07-23T05:40:58.921Z,50.46
2016-07-23T05:41:57.879Z,50.26
2016-07-23T05:42:57.886Z,50.56
2016-07-23T05:43:57.187Z,50.16
2016-07-23T05:44:58.104Z,50.46
2016-07-23T05:45:57.966Z,50.46
2016-07-23T05:46:57.918Z,50.46
2016-07-23T05:47:57.927Z,50.75
2016-07-23T05:48:57.946Z,50.56
2016-07-23T05:49:57.234Z,50.78
2016-07-23T05:50:57.946Z,50.56
2016-07-23T05:51:58.048Z,50.75
2016-07-23T05:52:57.964Z,50.68
2016-07-23T05:53:57.984Z,50.65
2016-07-23T05:54:57.981Z,50.36
2016-07-23T05:55:57.283Z,50.56
2016-07-23T05:56:57.999Z,50.26
2016-07-23T05:57:57.298Z,50.26
2016-07-23T05:58:58.012Z,50.07
2016-07-23T05:59:57.311Z,50.09
2016-07-23T06:00:57.320Z,50.07
2016-07-23T06:01:57.328Z,50.16
2016-07-23T06:02:58.741Z,50.26
2016-07-23T06:03:58.049Z,50.26
2016-07-23T06:04:58.060Z,50.26
2016-07-23T06:05:58.067Z,50.36
2016-07-23T06:06:57.370Z,50.16
2016-07-23T06:07:58.081Z,50.19
2016-07-23T06:08:58.089Z,50.09
2016-07-23T06:09:58.099Z,50.36
2016-07-23T06:10:57.403Z,50.36
2016-07-23T06:11:57.407Z,49.78
2016-07-23T06:12:58.121Z,49.99
2016-07-23T06:13:57.825Z,49.99
2016-07-23T06:14:58.139Z,49.99
2016-07-23T06:15:58.147Z,49.9
2016-07-23T06:16:57.448Z,49.99
2016-07-23T06:17:59.265Z,50.19
2016-07-23T06:18:58.173Z,49.99
2016-07-23T06:19:58.178Z,49.99
2016-07-23T06:20:57.480Z,50.29
2016-07-23T06:21:58.197Z,50.38
2016-07-23T06:22:58.204Z,50.19
2016-07-23T06:23:57.508Z,50.29
2016-07-23T06:24:57.513Z,49.71
2016-07-23T06:25:57.523Z,50.29
2016-07-23T06:26:59.110Z,49.8
2016-07-23T06:27:58.247Z,49.61
2016-07-23T06:28:57.559Z,49.8
2016-07-23T06:29:57.555Z,49.71
2016-07-23T06:30:57.564Z,49.8
2016-07-23T06:31:57.575Z,49.8
2016-07-23T06:32:58.288Z,50.09
2016-07-23T06:33:58.295Z,49.8
2016-07-23T06:34:58.305Z,49.71
2016-07-23T06:35:58.311Z,49.9
2016-07-23T06:36:57.610Z,49.99
2016-07-23T06:37:59.047Z,49.99
2016-07-23T06:38:58.337Z,49.99
2016-07-23T06:39:58.736Z,49.8
2016-07-23T06:40:58.351Z,49.71
2016-07-23T06:41:57.654Z,49.8
2016-07-23T06:42:57.660Z,49.71
2016-07-23T06:43:58.373Z,49.22
2016-07-23T06:44:58.383Z,49.9
2016-07-23T06:45:58.393Z,48.93
2016-07-23T06:46:58.449Z,49.34
2016-07-23T06:47:57.699Z,49.24
2016-07-23T06:48:59.028Z,48.95
2016-07-23T06:49:57.716Z,49.15
2016-07-23T06:50:58.732Z,49.15
2016-07-23T06:51:57.734Z,49.34
2016-07-23T06:52:58.451Z,49.05
2016-07-23T06:53:58.464Z,49.15
2016-07-23T06:54:58.466Z,49.15
2016-07-23T06:55:57.770Z,49.34
2016-07-23T06:56:58.482Z,49.44
2016-07-23T06:57:57.883Z,49.34
2016-07-23T06:58:58.497Z,49.73
2016-07-23T06:59:58.900Z,49.15
2016-07-23T07:00:58.514Z,49.34
2016-07-23T07:01:58.468Z,49.15
2016-07-23T07:02:57.823Z,49.54
2016-07-23T07:03:58.542Z,49.44
2016-07-23T07:04:58.551Z,48.95
2016-07-23T07:05:58.556Z,49.15
2016-07-23T07:06:57.858Z,48.95
2016-07-23T07:07:58.571Z,49.24
2016-07-23T07:08:57.880Z,49.54
2016-07-23T07:09:58.590Z,49.54
2016-07-23T07:10:59.251Z,49.63
2016-07-23T07:11:57.901Z,49.24
2016-07-23T07:12:58.615Z,49.15
2016-07-23T07:13:57.916Z,49.24
2016-07-23T07:14:58.634Z,49.05
2016-07-23T07:15:57.934Z,49.05
2016-07-23T07:16:58.651Z,49.34
2016-07-23T07:17:58.659Z,49.34
2016-07-23T07:18:58.669Z,49.54
2016-07-23T07:19:57.968Z,49.44
2016-07-23T07:20:58.687Z,48.95
2016-07-23T07:21:59.247Z,48.85
2016-07-23T07:22:58.704Z,49.41
2016-07-23T07:23:58.712Z,49.34
2016-07-23T07:24:58.011Z,49.44
2016-07-23T07:25:58.021Z,49.24
2016-07-23T07:26:58.027Z,48.93
2016-07-23T07:27:58.745Z,49.61
2016-07-23T07:28:58.045Z,49.44
2016-07-23T07:29:58.763Z,48.95
2016-07-23T07:30:58.061Z,48.85
2016-07-23T07:31:58.073Z,48.95
2016-07-23T07:32:59.086Z,48.85
2016-07-23T07:33:58.816Z,48.95
2016-07-23T07:34:58.095Z,48.85
2016-07-23T07:35:58.104Z,49.34
2016-07-23T07:36:58.111Z,49.05
2016-07-23T07:37:58.826Z,49.34
2016-07-23T07:38:58.126Z,48.85
2016-07-23T07:39:58.135Z,48.85
2016-07-23T07:40:58.848Z,49.05
2016-07-23T07:41:58.151Z,49.44
2016-07-23T07:42:58.863Z,49.44
2016-07-23T07:43:58.217Z,49.34
2016-07-23T07:44:58.223Z,49.24
2016-07-23T07:45:59.829Z,49.24
2016-07-23T07:46:58.243Z,49.44
2016-07-23T07:47:58.198Z,49.44
2016-07-23T07:48:58.909Z,49.15
2016-07-23T07:49:58.211Z,49.05
2016-07-23T07:50:58.934Z,48.95
2016-07-23T07:51:58.935Z,48.95
2016-07-23T07:52:58.235Z,49.34
2016-07-23T07:53:58.948Z,49.63
2016-07-23T07:54:58.957Z,49.44
2016-07-23T07:55:58.257Z,49.83
2016-07-23T07:56:58.268Z,49.34
2016-07-23T07:57:58.987Z,49.15
2016-07-23T07:58:58.428Z,49.34
2016-07-23T07:59:58.287Z,49.02
2016-07-23T08:00:58.299Z,49.41
2016-07-23T08:01:58.305Z,49.32
2016-07-23T08:02:58.311Z,49.05
2016-07-23T08:03:59.024Z,49.24
2016-07-23T08:04:59.033Z,49.8
2016-07-23T08:05:58.334Z,49.34
2016-07-23T08:06:58.342Z,49.63
2016-07-23T08:07:58.347Z,49.32
2016-07-23T08:08:58.356Z,49.51
2016-07-23T08:09:59.069Z,49.24
2016-07-23T08:10:59.078Z,49.02
2016-07-23T08:11:59.087Z,49.22
2016-07-23T08:12:58.385Z,49.34
2016-07-23T08:13:59.105Z,49.22
2016-07-23T08:14:59.110Z,49.22
2016-07-23T08:15:59.119Z,49.9
2016-07-23T08:16:59.126Z,49.41
2016-07-23T08:17:59.137Z,48.95
2016-07-23T08:18:59.843Z,49.54
2016-07-23T08:19:59.153Z,49.12
2016-07-23T08:20:59.158Z,49.34
2016-07-23T08:21:59.168Z,49.32
2016-07-23T08:22:58.481Z,49.24
2016-07-23T08:23:59.185Z,49.12
2016-07-23T08:24:58.488Z,49.05
2016-07-23T08:25:59.201Z,49.05
2016-07-23T08:26:59.207Z,49.15
2016-07-23T08:27:58.519Z,49.15
2016-07-23T08:28:58.518Z,49.34
2016-07-23T08:30:00.138Z,49.54
2016-07-23T08:30:59.243Z,49.05
2016-07-23T08:31:58.549Z,49.34
2016-07-23T08:32:58.549Z,49.44
2016-07-23T08:33:59.266Z,49.54
2016-07-23T08:34:58.584Z,49.54
2016-07-23T08:35:59.282Z,49.34
2016-07-23T08:36:59.290Z,48.85
2016-07-23T08:37:59.299Z,49.44
2016-07-23T08:38:58.600Z,49.54
2016-07-23T08:39:58.607Z,49.63
2016-07-23T08:40:58.616Z,49.24
2016-07-23T08:41:59.327Z,49.15
2016-07-23T08:42:59.336Z,49.34
2016-07-23T08:43:59.344Z,49.15
2016-07-23T08:44:59.352Z,49.24
2016-07-23T08:45:59.360Z,48.95
2016-07-23T08:46:59.375Z,49.63
2016-07-23T08:47:59.374Z,49.44
2016-07-23T08:48:59.384Z,49.44
2016-07-23T08:49:59.393Z,49.05
2016-07-23T08:50:59.398Z,48.95
2016-07-23T08:52:00.323Z,48.75
2016-07-23T08:52:58.710Z,49.54
2016-07-23T08:53:59.423Z,49.44
2016-07-23T08:54:58.729Z,49.63
2016-07-23T08:55:59.438Z,49.54
2016-07-23T08:56:59.446Z,49.44
2016-07-23T08:57:59.454Z,49.63
2016-07-23T08:58:59.462Z,49.34
2016-07-23T08:59:59.472Z,49.63
2016-07-23T09:00:58.819Z,49.05
2016-07-23T09:01:58.787Z,49.54
2016-07-23T09:03:00.177Z,49.63
2016-07-23T09:03:59.499Z,49.63
2016-07-23T09:04:59.506Z,49.44
2016-07-23T09:05:59.513Z,49.63
2016-07-23T09:06:58.815Z,49.34
2016-07-23T09:07:58.824Z,49.54
2016-07-23T09:08:58.845Z,49.54
2016-07-23T09:09:59.546Z,49.34
2016-07-23T09:10:59.554Z,49.24
2016-07-23T09:11:59.562Z,49.24
2016-07-23T09:12:58.864Z,49.44
2016-07-23T09:14:00.406Z,52.45
2016-07-23T09:14:58.980Z,54.71
2016-07-23T09:15:59.595Z,54
2016-07-23T09:16:59.600Z,56.04
2016-07-23T09:17:59.610Z,54.75
2016-07-23T09:18:58.905Z,56.7
2016-07-23T09:19:58.912Z,56.57
2016-07-23T09:20:58.915Z,57.08
2016-07-23T09:21:58.923Z,57.73
2016-07-23T09:22:59.635Z,58.8
2016-07-23T09:23:59.637Z,59.61
2016-07-23T09:25:00.506Z,60.68
2016-07-23T09:25:59.648Z,60.94
2016-07-23T09:26:59.653Z,61.46
2016-07-23T09:27:59.655Z,61.33
2016-07-23T09:28:59.658Z,61.14
2016-07-23T09:29:59.661Z,60.49
2016-07-23T09:30:58.959Z,59.52
2016-07-23T09:31:59.670Z,60.49
2016-07-23T09:32:59.672Z,61.17
2016-07-23T09:33:58.969Z,61.91
2016-07-23T09:34:59.677Z,62.88
2016-07-23T09:35:58.975Z,62.75
2016-07-23T09:36:59.684Z,62.2
2016-07-23T09:37:59.689Z,62.59
2016-07-23T09:38:59.691Z,60.65
2016-07-23T09:39:59.695Z,59.81
2016-07-23T09:40:58.998Z,60.3
2016-07-23T09:41:59.706Z,59.94
2016-07-23T09:42:59.009Z,59.55
2016-07-23T09:43:59.711Z,58.67
2016-07-23T09:44:59.058Z,58.31
2016-07-23T09:45:59.722Z,59
2016-07-23T09:46:59.019Z,60.35
2016-07-23T09:47:59.020Z,60.39
2016-07-23T09:48:59.029Z,60.2
2016-07-23T09:49:59.032Z,60.13
2016-07-23T09:50:59.038Z,58.58
2016-07-23T09:51:59.043Z,58.7
2016-07-23T09:52:59.756Z,58.8
2016-07-23T09:53:59.051Z,58.12
2016-07-23T09:54:59.762Z,58.41
2016-07-23T09:55:59.769Z,58.77
2016-07-23T09:56:59.773Z,59.74
2016-07-23T09:58:00.636Z,59.77
2016-07-23T09:58:59.783Z,59.55
2016-07-23T09:59:59.081Z,59.16
2016-07-23T10:00:59.843Z,60.71
2016-07-23T10:01:59.808Z,60.2
2016-07-23T10:02:59.802Z,60.91
2016-07-23T10:03:59.807Z,60.13
2016-07-23T10:04:59.809Z,58.7
2016-07-23T10:05:59.816Z,58.12
2016-07-23T10:06:59.304Z,60.19
2016-07-23T10:07:59.552Z,59.55
2016-07-23T10:08:59.575Z,59.28
2016-07-23T10:09:59.836Z,60.06
2016-07-23T10:10:59.839Z,60.03
2016-07-23T10:11:59.843Z,61
2016-07-23T10:12:59.847Z,60.68
2016-07-23T10:13:59.146Z,59.33
2016-07-23T10:14:59.858Z,59.97
2016-07-23T10:15:59.862Z,60.42
2016-07-23T10:16:59.865Z,61.1
2016-07-23T10:17:59.870Z,60.13
2016-07-23T10:18:59.167Z,58.48
2016-07-23T10:19:59.171Z,58.7
2016-07-23T10:20:59.886Z,58.64
2016-07-23T10:21:59.890Z,57.08
2016-07-23T10:22:59.204Z,58.67
2016-07-23T10:23:59.195Z,59.03
2016-07-23T10:24:59.201Z,59.8
2016-07-23T10:25:59.915Z,59.87
2016-07-23T10:26:59.210Z,59.77
2016-07-23T10:27:59.925Z,59.61
2016-07-23T10:28:59.927Z,58.61
2016-07-23T10:29:59.226Z,58.73
2016-07-23T10:30:59.232Z,57.57
2016-07-23T10:31:59.944Z,57.79
2016-07-23T10:32:59.244Z,59.31
2016-07-23T10:33:59.248Z,59.77
2016-07-23T10:34:59.960Z,58.8
2016-07-23T10:35:59.258Z,59.19
2016-07-23T10:36:59.262Z,58.41
2016-07-23T10:37:59.269Z,58.44
2016-07-23T10:38:59.985Z,58.25
2016-07-23T10:39:59.281Z,58.15
2016-07-23T10:40:59.993Z,58.34
2016-07-23T10:42:00.672Z,57.93
2016-07-23T10:43:00.003Z,57.37
2016-07-23T10:44:00.011Z,57.86
2016-07-23T10:45:00.022Z,58.64
2016-07-23T10:46:00.019Z,58.44
2016-07-23T10:47:00.024Z,58.73
2016-07-23T10:48:00.030Z,59.77
2016-07-23T10:48:59.326Z,60.58
2016-07-23T10:50:00.040Z,60.13
2016-07-23T10:51:00.042Z,60.61
2016-07-23T10:52:00.096Z,59.94
2016-07-23T10:52:59.354Z,59.67
2016-07-23T10:53:59.349Z,59.09
2016-07-23T10:55:00.064Z,59.48
2016-07-23T10:56:00.066Z,60.64
2016-07-23T10:57:00.067Z,60.13
2016-07-23T10:58:00.073Z,60.13
2016-07-23T10:58:59.369Z,60.16
2016-07-23T10:59:59.372Z,59.38
2016-07-23T11:01:00.088Z,58.51
2016-07-23T11:02:00.230Z,58.73
2016-07-23T11:02:59.387Z,56.98
2016-07-23T11:03:59.394Z,57.89
2016-07-23T11:05:00.109Z,58.28
2016-07-23T11:06:00.112Z,58.05
2016-07-23T11:06:59.410Z,57.89
2016-07-23T11:08:00.127Z,57.69
2016-07-23T11:08:59.422Z,57.79
2016-07-23T11:09:59.433Z,57.21
2016-07-23T11:11:00.141Z,57.31
2016-07-23T11:11:59.438Z,57.86
2016-07-23T11:12:59.443Z,57.76
2016-07-23T11:13:59.449Z,56.82
2016-07-23T11:14:59.453Z,57.69
2016-07-23T11:16:00.169Z,57.47
2016-07-23T11:17:00.175Z,58.25
2016-07-23T11:17:59.472Z,57.31
2016-07-23T11:18:59.474Z,56.72
2016-07-23T11:20:00.191Z,56.43
2016-07-23T11:20:59.488Z,56.16
2016-07-23T11:22:00.203Z,56.56
2016-07-23T11:22:59.498Z,56.85
2016-07-23T11:24:00.413Z,56.62
2016-07-23T11:25:00.217Z,56.34
2016-07-23T11:26:00.225Z,56.43
2016-07-23T11:27:00.230Z,57.31
2016-07-23T11:27:59.529Z,56.79
2016-07-23T11:28:59.533Z,56.62
2016-07-23T11:29:59.540Z,56.62
2016-07-23T11:30:59.547Z,56.89
2016-07-23T11:32:00.259Z,56.24
2016-07-23T11:33:00.265Z,55.85
2016-07-23T11:34:00.272Z,56.24
2016-07-23T11:34:59.921Z,55.36
2016-07-23T11:36:00.281Z,55.58
2016-07-23T11:37:00.290Z,55.58
2016-07-23T11:37:59.587Z,55.39
2016-07-23T11:39:00.300Z,55.98
2016-07-23T11:40:00.306Z,56.14
2016-07-23T11:41:00.313Z,56.62
2016-07-23T11:41:59.611Z,56.43
2016-07-23T11:42:59.614Z,56.72
2016-07-23T11:44:00.326Z,57.11
2016-07-23T11:45:00.335Z,57.37
2016-07-23T11:45:59.931Z,56.7
2016-07-23T11:47:00.348Z,57.01
2016-07-23T11:48:00.352Z,56.82
2016-07-23T11:48:59.650Z,56.5
2016-07-23T11:50:00.363Z,56.92
2016-07-23T11:50:59.660Z,56.43
2016-07-23T11:52:00.376Z,56.14
2016-07-23T11:53:00.379Z,55.94
2016-07-23T11:53:59.680Z,56.24
2016-07-23T11:55:00.391Z,55.94
2016-07-23T11:55:59.692Z,55.75
2016-07-23T11:57:00.815Z,55.75
2016-07-23T11:57:59.701Z,56.14
2016-07-23T11:58:59.707Z,56.14
2016-07-23T11:59:59.715Z,55.98
2016-07-23T12:01:00.430Z,56.92
2016-07-23T12:02:00.432Z,56.52
2016-07-23T12:02:59.733Z,55.98
2016-07-23T12:03:59.741Z,55.65
2016-07-23T12:04:59.744Z,55.1
2016-07-23T12:06:00.458Z,55.29
2016-07-23T12:06:59.756Z,55.49
2016-07-23T12:08:00.164Z,55.27
2016-07-23T12:08:59.768Z,54.61
2016-07-23T12:09:59.831Z,54.03
2016-07-23T12:11:00.488Z,54.13
2016-07-23T12:11:59.789Z,53.74
2016-07-23T12:13:00.502Z,54.52
2016-07-23T12:13:59.803Z,55.19
2016-07-23T12:15:00.516Z,54.88
2016-07-23T12:16:00.519Z,55.53
2016-07-23T12:17:00.526Z,56.3
2016-07-23T12:18:00.531Z,55.14
2016-07-23T12:19:00.582Z,54.58
2016-07-23T12:20:00.543Z,53.93
2016-07-23T12:21:00.550Z,54
2016-07-23T12:22:00.555Z,54.13
2016-07-23T12:23:00.562Z,54.97
2016-07-23T12:23:59.859Z,54.78
2016-07-23T12:25:00.575Z,54.68
2016-07-23T12:26:00.579Z,54.78
2016-07-23T12:27:00.597Z,54.88
2016-07-23T12:27:59.883Z,54.29
2016-07-23T12:29:00.597Z,54.58
2016-07-23T12:30:00.647Z,54.68
2016-07-23T12:31:00.607Z,54.49
2016-07-23T12:32:00.616Z,54
2016-07-23T12:33:00.619Z,53.52
2016-07-23T12:34:00.627Z,54.32
2016-07-23T12:35:00.630Z,53.64
2016-07-23T12:36:00.638Z,53.93
2016-07-23T12:37:00.645Z,53.93
2016-07-23T12:37:59.942Z,54.71
2016-07-23T12:38:59.950Z,54.78
2016-07-23T12:39:59.954Z,56.14
2016-07-23T12:41:00.715Z,55.94
2016-07-23T12:41:59.967Z,56.24
2016-07-23T12:43:00.677Z,55.75
2016-07-23T12:43:59.977Z,55.75
2016-07-23T12:44:59.985Z,55.17
2016-07-23T12:46:00.696Z,54.49
2016-07-23T12:47:00.703Z,54.03
2016-07-23T12:48:00.712Z,54.22
2016-07-23T12:49:00.716Z,53.45
2016-07-23T12:50:00.022Z,52.86
2016-07-23T12:51:00.729Z,52.69
2016-07-23T12:52:00.780Z,52.4
2016-07-23T12:53:00.036Z,52.4
2016-07-23T12:54:00.751Z,52.59
2016-07-23T12:55:00.050Z,53.93